Time;durP1;ratioP1;P1;durP2;ratioP2;P2;SDS_P1;SDS_P2;PMS_P1;PMS_P2;Temp;Humidity;BMP_temperature;BMP_pressure;BME280_temperature;BME280_humidity;BME280_pressure;Samples;Min_cycle;Max_cycle;Signal;HPM_P1;HPM_P2
2023/05/09 00:01:38;;;;;;;6.15;5.55;;;15.20;99.90;;;;;;5030422;28;20033;-40
2023/05/09 00:04:04;;;;;;;6.25;5.65;;;15.30;99.90;;;;;;5030539;28;20029;-41
2023/05/09 00:06:31;;;;;;;5.43;4.90;;;15.20;99.90;;;;;;5030060;28;20034;-41
2023/05/09 00:08:57;;;;;;;6.45;5.75;;;15.20;99.90;;;;;;5032728;28;20256;-43
2023/05/09 00:11:22;;;;;;;8.20;5.88;;;15.20;99.90;;;;;;5033980;28;20399;-43
2023/05/09 00:13:49;;;;;;;7.63;5.70;;;15.20;99.90;;;;;;5034043;28;20389;-41
2023/05/09 00:16:15;;;;;;;6.50;5.28;;;15.30;99.90;;;;;;5033320;28;20386;-40
2023/05/09 00:18:42;;;;;;;4.45;4.05;;;15.30;99.90;;;;;;5033825;28;20021;-40
2023/05/09 00:21:09;;;;;;;5.32;4.60;;;15.30;99.90;;;;;;5033833;28;20508;-42
2023/05/09 00:23:36;;;;;;;5.40;4.90;;;15.30;99.90;;;;;;5033748;28;20033;-40
2023/05/09 00:26:01;;;;;;;5.68;4.50;;;15.20;99.90;;;;;;5033376;28;20477;-40
2023/05/09 00:28:27;;;;;;;5.20;4.70;;;15.20;99.90;;;;;;5033654;28;20100;-41
2023/05/09 00:30:53;;;;;;;5.55;5.05;;;15.20;99.90;;;;;;5033602;28;20337;-41
2023/05/09 00:33:19;;;;;;;6.60;5.90;;;15.20;99.90;;;;;;5033565;28;20028;-41
2023/05/09 00:35:45;;;;;;;5.75;5.25;;;15.20;99.90;;;;;;5033276;28;20060;-41
2023/05/09 00:38:11;;;;;;;5.22;4.72;;;15.20;99.90;;;;;;5033106;28;20065;-41
2023/05/09 00:40:36;;;;;;;6.07;5.43;;;15.20;99.90;;;;;;5033436;28;20505;-41
2023/05/09 00:43:02;;;;;;;6.80;4.57;;;15.20;99.90;;;;;;5033355;28;20104;-40
2023/05/09 00:45:28;;;;;;;5.70;4.75;;;15.20;99.90;;;;;;5033348;28;20025;-42
2023/05/09 00:47:54;;;;;;;5.72;5.00;;;15.20;99.90;;;;;;5032788;28;20479;-43
2023/05/09 00:50:20;;;;;;;4.72;4.22;;;15.20;99.90;;;;;;5033281;28;20557;-42
2023/05/09 00:52:45;;;;;;;5.93;5.00;;;15.20;99.90;;;;;;5033272;28;20033;-41
2023/05/09 00:55:12;;;;;;;5.28;4.78;;;15.20;99.90;;;;;;5033247;28;20048;-40
2023/05/09 00:57:38;;;;;;;9.63;4.80;;;15.20;99.90;;;;;;5014795;28;20383;-41
2023/05/09 01:00:04;;;;;;;5.10;4.60;;;15.20;99.90;;;;;;5033172;28;20025;-41
2023/05/09 01:02:31;;;;;;;5.88;4.85;;;15.20;99.90;;;;;;5033088;28;20055;-41
2023/05/09 01:04:57;;;;;;;4.38;3.97;;;15.20;99.90;;;;;;5033041;28;20406;-43
2023/05/09 01:08:03;;;;;;;4.88;4.00;;;15.20;99.90;;;;;;5032271;28;20049;-40
2023/05/09 01:10:43;;;;;;;6.13;5.28;;;15.20;99.90;;;;;;5033035;28;20025;-41
2023/05/09 01:13:30;;;;;;;5.35;4.40;;;15.20;99.90;;;;;;5032913;28;20075;-41
2023/05/09 01:16:17;;;;;;;4.50;3.95;;;15.20;99.90;;;;;;5032347;28;20033;-41
2023/05/09 01:18:48;;;;;;;5.82;4.40;;;15.20;99.90;;;;;;5032624;28;20025;-41
2023/05/09 01:21:24;;;;;;;5.60;4.88;;;15.20;99.90;;;;;;5031874;28;20033;-41
2023/05/09 01:24:07;;;;;;;7.72;4.90;;;15.20;99.90;;;;;;5032721;28;20029;-41
2023/05/09 01:26:41;;;;;;;6.93;5.20;;;15.20;99.90;;;;;;5032078;28;20036;-41
2023/05/09 01:29:31;;;;;;;9.65;6.00;;;15.20;99.90;;;;;;5032569;28;20033;-41
2023/05/09 01:31:58;;;;;;;7.30;5.78;;;15.20;99.90;;;;;;5032425;28;20057;-41
2023/05/09 01:34:26;;;;;;;8.32;6.50;;;15.20;99.90;;;;;;5032437;28;20031;-41
2023/05/09 01:36:55;;;;;;;9.60;6.65;;;15.20;99.90;;;;;;5032307;28;20429;-42
2023/05/09 01:39:23;;;;;;;11.15;7.03;;;15.20;99.90;;;;;;5033817;28;20589;-41
2023/05/09 01:41:51;;;;;;;9.65;7.85;;;15.30;99.90;;;;;;5033699;28;20112;-42
2023/05/09 01:44:19;;;;;;;9.75;7.65;;;15.20;99.90;;;;;;5034166;28;20100;-41
2023/05/09 01:46:46;;;;;;;10.02;5.60;;;15.20;99.90;;;;;;5033476;28;20478;-42
2023/05/09 01:49:12;;;;;;;9.18;7.45;;;15.20;99.90;;;;;;5033714;28;20032;-44
2023/05/09 01:51:40;;;;;;;14.95;7.93;;;15.20;99.90;;;;;;5033914;28;20127;-45
2023/05/09 01:54:06;;;;;;;9.27;6.65;;;15.20;99.90;;;;;;5034173;28;20142;-44
2023/05/09 01:56:32;;;;;;;12.93;7.07;;;15.20;99.90;;;;;;5033343;28;20475;-42
2023/05/09 01:58:59;;;;;;;9.48;6.50;;;15.20;99.90;;;;;;5033778;28;20029;-45
2023/05/09 02:01:25;;;;;;;9.63;7.10;;;15.20;99.90;;;;;;5033695;28;20079;-41
2023/05/09 02:03:53;;;;;;;9.70;6.88;;;15.20;99.90;;;;;;5033555;28;20029;-41
2023/05/09 02:06:20;;;;;;;7.60;6.15;;;15.20;99.90;;;;;;5032694;28;20025;-41
2023/05/09 02:08:47;;;;;;;11.77;8.60;;;15.20;99.90;;;;;;5033679;28;20029;-42
2023/05/09 02:11:12;;;;;;;18.65;9.77;;;15.20;99.90;;;;;;5033817;28;20026;-41
2023/05/09 02:13:38;;;;;;;16.30;9.50;;;15.20;99.90;;;;;;5033298;28;20017;-46
2023/05/09 02:16:06;;;;;;;15.48;9.30;;;15.20;99.90;;;;;;5032613;28;20030;-44
2023/05/09 02:18:33;;;;;;;16.75;9.63;;;15.20;99.90;;;;;;5033202;28;20026;-41
2023/05/09 02:21:00;;;;;;;12.50;9.90;;;15.20;99.90;;;;;;5032924;28;20025;-42
2023/05/09 02:23:26;;;;;;;13.27;8.75;;;15.20;99.90;;;;;;5032872;28;20026;-41
2023/05/09 02:25:53;;;;;;;12.85;8.93;;;15.20;99.90;;;;;;5032575;28;20545;-42
2023/05/09 02:28:21;;;;;;;17.92;8.57;;;15.20;99.90;;;;;;5032623;28;20097;-44
2023/05/09 02:30:49;;;;;;;13.90;8.20;;;15.20;99.90;;;;;;5032903;28;20044;-44
2023/05/09 02:33:15;;;;;;;14.55;9.13;;;15.20;99.90;;;;;;5033152;28;20100;-41
2023/05/09 02:35:43;;;;;;;9.85;7.50;;;15.20;99.90;;;;;;5032989;28;20021;-41
2023/05/09 02:38:09;;;;;;;10.18;7.28;;;15.20;99.90;;;;;;5033207;28;20052;-42
2023/05/09 02:40:35;;;;;;;14.38;10.00;;;15.20;99.90;;;;;;5032759;28;20021;-41
2023/05/09 02:43:01;;;;;;;10.50;6.97;;;15.20;99.90;;;;;;5033053;28;20025;-41
2023/05/09 02:45:26;;;;;;;12.45;7.80;;;15.10;99.90;;;;;;5033028;28;20521;-40
2023/05/09 02:47:52;;;;;;;15.68;10.95;;;15.10;99.90;;;;;;5032262;28;20412;-44
2023/05/09 02:50:18;;;;;;;14.18;10.07;;;15.20;99.90;;;;;;5033033;28;20079;-45
2023/05/09 02:52:44;;;;;;;11.63;8.35;;;15.20;99.90;;;;;;5033003;28;20032;-41
2023/05/09 02:55:10;;;;;;;11.75;9.43;;;15.20;99.90;;;;;;5032906;28;20018;-43
2023/05/09 02:57:36;;;;;;;12.00;9.13;;;15.20;99.90;;;;;;5032393;28;20022;-48
2023/05/09 03:00:03;;;;;;;10.75;8.10;;;15.20;99.90;;;;;;5032783;28;20033;-45
2023/05/09 03:02:28;;;;;;;11.90;7.57;;;15.20;99.90;;;;;;5032706;28;20026;-43
2023/05/09 03:04:54;;;;;;;11.02;7.30;;;15.10;99.90;;;;;;5032722;28;20033;-42
2023/05/09 03:07:20;;;;;;;10.75;6.78;;;15.20;99.90;;;;;;5032050;28;20112;-41
2023/05/09 03:09:45;;;;;;;8.98;6.40;;;15.10;99.90;;;;;;5032273;28;20056;-40
2023/05/09 03:12:11;;;;;;;8.40;7.13;;;15.10;99.90;;;;;;5032692;28;20401;-44
2023/05/09 03:14:36;;;;;;;8.65;6.38;;;15.20;99.90;;;;;;5032774;28;20038;-42
2023/05/09 03:17:02;;;;;;;10.80;6.20;;;15.20;99.90;;;;;;5031975;28;20108;-42
2023/05/09 03:19:28;;;;;;;7.07;5.72;;;15.20;99.90;;;;;;5032174;28;20509;-42
2023/05/09 03:21:53;;;;;;;8.30;6.32;;;15.20;99.90;;;;;;5032796;28;20033;-44
2023/05/09 03:24:19;;;;;;;9.75;7.03;;;15.20;99.90;;;;;;5032615;28;20029;-43
2023/05/09 03:26:45;;;;;;;10.02;6.95;;;15.20;99.90;;;;;;5032091;28;20131;-44
2023/05/09 03:29:10;;;;;;;8.10;6.20;;;15.20;99.90;;;;;;5032218;28;20026;-43
2023/05/09 03:31:36;;;;;;;8.50;6.68;;;15.20;99.90;;;;;;5032541;28;20052;-43
2023/05/09 03:34:01;;;;;;;6.03;5.40;;;15.20;99.90;;;;;;5032304;28;20055;-42
2023/05/09 03:36:27;;;;;;;7.00;6.28;;;15.20;99.90;;;;;;5031682;28;20033;-42
2023/05/09 03:38:53;;;;;;;8.30;6.82;;;15.20;99.90;;;;;;5032429;28;20048;-41
2023/05/09 03:41:18;;;;;;;6.70;6.00;;;15.20;99.90;;;;;;5032512;28;20048;-42
2023/05/09 03:43:44;;;;;;;6.80;6.10;;;15.20;99.90;;;;;;5034959;28;20467;-41
2023/05/09 03:46:10;;;;;;;9.77;6.90;;;15.20;99.90;;;;;;5035700;28;20057;-41
2023/05/09 03:48:35;;;;;;;9.27;7.65;;;15.20;99.90;;;;;;5036462;28;20025;-41
2023/05/09 03:51:04;;;;;;;9.07;7.70;;;15.20;99.90;;;;;;5036338;28;20032;-44
2023/05/09 03:53:29;;;;;;;10.23;7.93;;;15.20;99.90;;;;;;5035923;28;20029;-42
2023/05/09 03:55:55;;;;;;;7.85;7.05;;;15.20;99.90;;;;;;5035298;28;20098;-42
2023/05/09 03:58:20;;;;;;;8.38;6.63;;;15.20;99.90;;;;;;5035811;28;20017;-43
2023/05/09 04:00:46;;;;;;;7.03;5.85;;;15.20;99.90;;;;;;5035939;28;20036;-44
2023/05/09 04:03:12;;;;;;;5.38;4.88;;;15.20;99.90;;;;;;5035733;28;20029;-41
2023/05/09 04:05:38;;;;;;;6.53;5.45;;;15.20;99.90;;;;;;5035796;28;20036;-41
2023/05/09 04:08:04;;;;;;;6.68;4.93;;;15.20;99.90;;;;;;5035234;28;20112;-42
2023/05/09 04:10:30;;;;;;;7.28;6.10;;;15.20;99.90;;;;;;5035602;28;20025;-44
2023/05/09 04:12:56;;;;;;;6.53;5.55;;;15.20;99.90;;;;;;5035686;28;20021;-43
2023/05/09 04:15:21;;;;;;;5.85;5.25;;;15.20;99.90;;;;;;5035541;28;20363;-44
2023/05/09 04:17:47;;;;;;;5.97;5.38;;;15.20;99.90;;;;;;5034932;28;20407;-45
2023/05/09 04:20:13;;;;;;;7.15;6.15;;;15.20;99.90;;;;;;5035577;28;20104;-44
2023/05/09 04:22:39;;;;;;;6.43;5.60;;;15.20;99.90;;;;;;5035579;28;20472;-41
2023/05/09 04:25:05;;;;;;;5.72;4.80;;;15.20;99.90;;;;;;5035538;28;20032;-41
2023/05/09 04:27:31;;;;;;;6.78;5.45;;;15.20;99.90;;;;;;5034814;28;20517;-48
2023/05/09 04:29:56;;;;;;;5.63;4.90;;;15.20;99.90;;;;;;5035153;28;20029;-42
2023/05/09 04:32:22;;;;;;;5.43;4.35;;;15.20;99.90;;;;;;5035311;28;20025;-43
2023/05/09 04:34:48;;;;;;;5.53;5.00;;;15.20;99.90;;;;;;5035282;28;20021;-41
2023/05/09 04:37:14;;;;;;;4.93;4.45;;;15.20;99.90;;;;;;5034845;28;20116;-41
2023/05/09 04:39:39;;;;;;;5.40;4.82;;;15.20;99.90;;;;;;5035289;28;20053;-44
2023/05/09 04:42:05;;;;;;;5.38;4.53;;;15.20;99.90;;;;;;5034684;28;20082;-42
2023/05/09 04:44:32;;;;;;;5.53;4.53;;;15.20;99.90;;;;;;5034943;28;20025;-42
2023/05/09 04:46:57;;;;;;;5.20;4.43;;;15.20;99.90;;;;;;5034792;28;20029;-41
2023/05/09 04:49:23;;;;;;;6.45;5.32;;;15.20;99.90;;;;;;5035250;28;20387;-42
2023/05/09 04:51:51;;;;;;;6.10;5.18;;;15.20;99.90;;;;;;5034588;28;20079;-43
2023/05/09 04:54:16;;;;;;;7.22;5.38;;;15.20;99.90;;;;;;5034774;28;20021;-45
2023/05/09 04:56:42;;;;;;;6.95;6.00;;;15.20;99.90;;;;;;5034318;28;20029;-46
2023/05/09 04:59:07;;;;;;;5.72;5.15;;;15.20;99.90;;;;;;5034945;28;20021;-42
2023/05/09 05:01:33;;;;;;;6.80;5.38;;;15.20;99.90;;;;;;5034890;28;20064;-41
2023/05/09 05:03:59;;;;;;;6.30;4.63;;;15.20;99.90;;;;;;5035163;28;20128;-41
2023/05/09 05:06:24;;;;;;;6.82;5.70;;;15.20;99.90;;;;;;5034262;28;20029;-41
2023/05/09 05:08:50;;;;;;;6.05;5.45;;;15.20;99.90;;;;;;5034937;28;20025;-41
2023/05/09 05:11:16;;;;;;;5.60;5.00;;;15.20;99.90;;;;;;5034626;28;20395;-42
2023/05/09 05:13:43;;;;;;;4.88;4.20;;;15.20;99.90;;;;;;5034706;28;20096;-41
2023/05/09 05:16:08;;;;;;;6.47;4.65;;;15.20;99.90;;;;;;5033808;28;20014;-41
2023/05/09 05:18:34;;;;;;;5.93;4.57;;;15.20;99.90;;;;;;5034424;28;20418;-43
2023/05/09 05:21:00;;;;;;;7.78;5.68;;;15.20;99.90;;;;;;5035054;28;20124;-42
2023/05/09 05:23:26;;;;;;;6.18;5.32;;;15.20;99.90;;;;;;5034514;28;20025;-41
2023/05/09 05:25:51;;;;;;;6.15;5.47;;;15.20;99.90;;;;;;5033414;28;20031;-42
2023/05/09 05:28:17;;;;;;;5.35;4.85;;;15.20;99.90;;;;;;5034062;28;20026;-41
2023/05/09 05:30:42;;;;;;;9.18;4.97;;;15.20;99.90;;;;;;5033939;28;20065;-40
2023/05/09 05:33:08;;;;;;;5.30;4.63;;;15.20;99.90;;;;;;5034008;28;20100;-44
2023/05/09 05:35:34;;;;;;;5.32;4.82;;;15.20;99.90;;;;;;5034035;28;20021;-44
2023/05/09 05:38:00;;;;;;;4.82;4.32;;;15.20;99.90;;;;;;5033476;28;20577;-41
2023/05/09 05:40:25;;;;;;;4.90;4.00;;;15.20;99.90;;;;;;5034095;28;20029;-42
2023/05/09 05:42:51;;;;;;;4.00;3.50;;;15.10;99.90;;;;;;5033829;28;20437;-41
2023/05/09 05:45:17;;;;;;;4.18;3.60;;;15.20;99.90;;;;;;5033641;28;20036;-44
2023/05/09 05:47:42;;;;;;;5.53;3.50;;;15.20;99.90;;;;;;5033244;28;20033;-45
2023/05/09 05:50:10;;;;;;;3.95;3.50;;;15.10;99.90;;;;;;5033645;28;20480;-44
2023/05/09 05:52:40;;;;;;;5.85;4.95;;;15.20;99.90;;;;;;5033604;28;20382;-42
2023/05/09 05:55:06;;;;;;;4.70;4.22;;;15.20;99.90;;;;;;5033507;28;20048;-42
2023/05/09 05:57:34;;;;;;;3.72;3.42;;;15.20;99.90;;;;;;5033497;28;20048;-41
2023/05/09 06:00:00;;;;;;;5.65;4.25;;;15.20;99.90;;;;;;5033597;28;20096;-41
2023/05/09 06:02:25;;;;;;;4.82;3.80;;;15.20;99.90;;;;;;5033354;28;20049;-42
2023/05/09 06:04:51;;;;;;;4.22;3.83;;;15.20;99.90;;;;;;5033243;28;20293;-42
2023/05/09 06:07:17;;;;;;;4.50;3.75;;;15.20;99.90;;;;;;5032116;28;20543;-42
2023/05/09 06:09:42;;;;;;;4.05;3.63;;;15.20;99.90;;;;;;5032859;28;20057;-43
2023/05/09 06:12:08;;;;;;;3.53;3.22;;;15.10;99.90;;;;;;5033155;28;20025;-42
2023/05/09 06:14:34;;;;;;;4.13;3.72;;;15.10;99.90;;;;;;5032880;28;20021;-41
2023/05/09 06:17:00;;;;;;;3.83;3.50;;;15.20;99.90;;;;;;5032471;28;20179;-41
2023/05/09 06:19:25;;;;;;;2.85;2.55;;;15.20;99.90;;;;;;5032899;28;20022;-46
2023/05/09 06:21:51;;;;;;;3.10;2.80;;;15.20;99.90;;;;;;5032740;28;20052;-44
2023/05/09 06:24:17;;;;;;;4.40;3.25;;;15.20;99.90;;;;;;5033352;28;20509;-40
2023/05/09 06:26:43;;;;;;;3.42;3.10;;;15.20;99.90;;;;;;5032198;28;20087;-41
2023/05/09 06:29:09;;;;;;;3.25;2.72;;;15.20;99.90;;;;;;5032953;28;20376;-42
2023/05/09 06:31:37;;;;;;;4.85;2.90;;;15.20;99.90;;;;;;5032678;28;20029;-40
2023/05/09 06:34:03;;;;;;;2.70;2.50;;;15.20;99.90;;;;;;5032658;28;20025;-42
2023/05/09 06:36:29;;;;;;;3.65;3.20;;;15.20;99.90;;;;;;5031663;28;20091;-41
2023/05/09 06:38:55;;;;;;;3.60;3.30;;;15.20;99.90;;;;;;5032708;28;20025;-42
2023/05/09 06:41:20;;;;;;;3.08;2.65;;;15.20;99.90;;;;;;5032733;28;20585;-42
2023/05/09 06:43:46;;;;;;;8.20;7.20;;;15.20;99.90;;;;;;5031905;28;20021;-43
2023/05/09 06:46:11;;;;;;;11.02;8.20;;;15.20;99.90;;;;;;5030978;28;20112;-43
2023/05/09 06:48:37;;;;;;;9.85;7.47;;;15.20;99.90;;;;;;5031578;28;20034;-48
2023/05/09 06:51:03;;;;;;;9.27;7.60;;;15.20;99.90;;;;;;5031061;28;20032;-46
2023/05/09 06:53:28;;;;;;;11.20;8.25;;;15.20;99.90;;;;;;5030919;28;20065;-45
2023/05/09 06:55:54;;;;;;;11.27;7.90;;;15.10;99.90;;;;;;5030676;28;20104;-42
2023/05/09 06:58:20;;;;;;;8.05;7.20;;;15.10;99.90;;;;;;5030866;28;20498;-43
2023/05/09 07:00:46;;;;;;;8.52;6.97;;;15.10;99.90;;;;;;5031048;28;20064;-43
2023/05/09 07:03:12;;;;;;;10.38;7.07;;;15.10;99.90;;;;;;5031027;28;20026;-44
2023/05/09 07:05:37;;;;;;;9.00;7.30;;;15.10;99.90;;;;;;5030953;28;20082;-42
2023/05/09 07:08:03;;;;;;;8.20;7.28;;;15.10;99.90;;;;;;5030211;28;20029;-46
2023/05/09 07:10:29;;;;;;;8.10;6.97;;;15.20;99.90;;;;;;5030834;28;20021;-45
2023/05/09 07:12:55;;;;;;;7.20;6.50;;;15.20;99.90;;;;;;5030819;28;20017;-43
2023/05/09 07:15:21;;;;;;;7.68;6.88;;;15.20;99.90;;;;;;5030826;28;20028;-45
2023/05/09 07:17:46;;;;;;;7.68;6.05;;;15.20;99.90;;;;;;5030855;28;20026;-46
2023/05/09 07:20:12;;;;;;;6.70;6.10;;;15.20;99.90;;;;;;5034934;28;20017;-48
2023/05/09 07:22:37;;;;;;;6.05;5.45;;;15.20;99.90;;;;;;5034719;28;20021;-42
2023/05/09 07:25:05;;;;;;;6.28;5.68;;;15.20;99.90;;;;;;5034991;28;20029;-43
2023/05/09 07:27:31;;;;;;;6.60;5.72;;;15.20;99.90;;;;;;5016237;28;20026;-46
2023/05/09 07:29:57;;;;;;;7.07;5.97;;;15.20;99.90;;;;;;5034654;28;20483;-42
2023/05/09 07:32:22;;;;;;;10.05;5.43;;;15.20;99.90;;;;;;5034747;28;20109;-43
2023/05/09 07:34:48;;;;;;;6.40;5.45;;;15.30;99.90;;;;;;5034645;28;20024;-45
2023/05/09 07:37:13;;;;;;;6.22;5.60;;;15.20;99.90;;;;;;5034420;28;20099;-43
2023/05/09 07:39:39;;;;;;;6.50;5.80;;;15.20;99.90;;;;;;5034892;28;20021;-44
2023/05/09 07:42:05;;;;;;;5.55;5.05;;;15.20;99.90;;;;;;5016809;28;20121;-44
2023/05/09 07:44:31;;;;;;;6.18;5.20;;;15.20;99.90;;;;;;5034479;28;20021;-47
2023/05/09 07:46:58;;;;;;;6.82;4.90;;;15.20;99.90;;;;;;5033909;28;20116;-43
2023/05/09 07:49:24;;;;;;;6.25;4.50;;;15.20;99.90;;;;;;5016634;28;20508;-43
2023/05/09 07:51:50;;;;;;;6.57;5.10;;;15.20;99.90;;;;;;5034191;28;20084;-45
2023/05/09 07:54:15;;;;;;;5.25;4.75;;;15.20;99.90;;;;;;5034363;28;20018;-44
2023/05/09 07:56:41;;;;;;;5.90;4.57;;;15.20;99.90;;;;;;5033655;28;20429;-43
2023/05/09 07:59:07;;;;;;;5.28;4.50;;;15.20;99.90;;;;;;5034479;28;20022;-43
2023/05/09 08:01:33;;;;;;;5.93;4.38;;;15.30;99.90;;;;;;5034110;28;20405;-45
2023/05/09 08:03:58;;;;;;;5.65;4.78;;;15.20;99.90;;;;;;5034130;28;20139;-45
2023/05/09 08:06:25;;;;;;;5.25;4.75;;;15.20;99.90;;;;;;5033421;28;20025;-44
2023/05/09 08:08:50;;;;;;;6.55;4.60;;;15.20;99.90;;;;;;5034043;28;20017;-44
2023/05/09 08:11:16;;;;;;;4.85;4.30;;;15.30;99.90;;;;;;5033837;28;20541;-48
2023/05/09 08:13:42;;;;;;;5.35;4.80;;;15.30;99.90;;;;;;5033931;28;20025;-44
2023/05/09 08:16:07;;;;;;;5.32;4.60;;;15.30;99.90;;;;;;5033279;28;20059;-45
2023/05/09 08:18:33;;;;;;;5.60;4.30;;;15.30;99.90;;;;;;5033823;28;20140;-44
2023/05/09 08:20:59;;;;;;;7.72;4.47;;;15.30;99.90;;;;;;5033707;28;20383;-46
2023/05/09 08:23:25;;;;;;;4.72;4.18;;;15.30;99.90;;;;;;5033948;28;20029;-44
2023/05/09 08:25:55;;;;;;;4.20;3.80;;;15.30;99.90;;;;;;5033205;28;20029;-43
2023/05/09 08:28:22;;;;;;;4.75;3.83;;;15.30;99.90;;;;;;5033113;28;20029;-44
2023/05/09 08:30:51;;;;;;;6.28;4.05;;;15.30;99.90;;;;;;5033416;28;20028;-44
2023/05/09 08:33:17;;;;;;;4.35;3.67;;;15.30;99.90;;;;;;5033609;28;20049;-44
2023/05/09 08:35:42;;;;;;;3.83;3.45;;;15.30;99.90;;;;;;5033411;28;20060;-43
2023/05/09 08:38:08;;;;;;;3.83;3.42;;;15.30;99.90;;;;;;5033074;28;20073;-44
2023/05/09 08:40:37;;;;;;;3.40;3.10;;;15.30;99.90;;;;;;5033467;28;20029;-44
2023/05/09 08:43:06;;;;;;;4.43;3.15;;;15.30;99.90;;;;;;5033578;28;20033;-47
2023/05/09 08:45:34;;;;;;;4.80;3.28;;;15.30;99.90;;;;;;5033392;28;20064;-44
2023/05/09 08:48:02;;;;;;;4.10;3.00;;;15.30;99.90;;;;;;5032740;28;20123;-44
2023/05/09 08:50:28;;;;;;;3.92;3.53;;;15.30;99.90;;;;;;5033248;28;20029;-44
2023/05/09 08:52:54;;;;;;;3.92;2.65;;;15.30;99.90;;;;;;5033442;28;20024;-44
2023/05/09 08:55:20;;;;;;;3.20;2.90;;;15.30;99.90;;;;;;5033193;28;20101;-43
2023/05/09 08:57:46;;;;;;;3.25;2.70;;;15.40;99.90;;;;;;5032702;28;20045;-43
2023/05/09 09:00:12;;;;;;;6.15;3.10;;;15.40;99.90;;;;;;5033159;28;20513;-44
2023/05/09 09:02:41;;;;;;;8.02;3.28;;;15.40;99.90;;;;;;5033007;28;20095;-45
2023/05/09 09:05:07;;;;;;;3.45;3.15;;;15.40;99.90;;;;;;5033086;28;20386;-45
2023/05/09 09:07:35;;;;;;;4.38;3.00;;;15.40;99.90;;;;;;5032641;28;20458;-45
2023/05/09 09:10:02;;;;;;;3.42;3.13;;;15.40;99.90;;;;;;5032971;28;20025;-44
2023/05/09 09:12:28;;;;;;;3.70;3.20;;;15.50;99.90;;;;;;5032948;28;20116;-44
2023/05/09 09:14:59;;;;;;;3.92;2.75;;;15.50;99.90;;;;;;5032870;28;20450;-45
2023/05/09 09:17:28;;;;;;;3.33;2.97;;;15.50;99.90;;;;;;5032337;28;20071;-44
2023/05/09 09:19:58;;;;;;;3.45;2.83;;;15.50;99.90;;;;;;5032882;28;20032;-44
2023/05/09 09:22:31;;;;;;;3.20;2.60;;;15.60;99.90;;;;;;5032824;28;20018;-43
2023/05/09 09:25:01;;;;;;;2.90;2.70;;;15.60;99.90;;;;;;5014877;28;20391;-43
2023/05/09 09:27:27;;;;;;;3.05;2.47;;;15.60;99.90;;;;;;5032102;28;20387;-44
2023/05/09 09:29:53;;;;;;;3.08;2.78;;;15.60;99.90;;;;;;5032763;28;20029;-43
2023/05/09 09:32:18;;;;;;;3.30;2.85;;;15.70;99.90;;;;;;5032459;28;20379;-43
2023/05/09 09:34:48;;;;;;;4.10;2.70;;;15.70;99.90;;;;;;5032505;28;20491;-44
2023/05/09 09:37:22;;;;;;;2.80;2.40;;;15.70;99.90;;;;;;5032093;28;20402;-44
2023/05/09 09:39:56;;;;;;;3.05;2.70;;;15.70;99.90;;;;;;5032095;28;20034;-47
2023/05/09 09:42:22;;;;;;;3.90;2.72;;;15.60;99.90;;;;;;5031583;28;20021;-45
2023/05/09 09:45:18;;;;;;;3.72;2.90;;;15.70;99.90;;;;;;5032220;28;20057;-44
2023/05/09 09:47:46;;;;;;;3.22;2.55;;;15.70;99.90;;;;;;5011051;28;20116;-44
2023/05/09 09:50:17;;;;;;;3.05;2.60;;;15.70;99.90;;;;;;5032108;28;20375;-47
2023/05/09 09:52:50;;;;;;;4.80;2.50;;;15.70;99.90;;;;;;5031894;28;20044;-45
2023/05/09 09:55:17;;;;;;;5.30;2.70;;;15.70;99.90;;;;;;5032066;28;20028;-43
2023/05/09 09:57:44;;;;;;;5.75;3.97;;;15.70;99.90;;;;;;5031412;28;20562;-43
2023/05/09 10:00:12;;;;;;;3.80;3.40;;;15.80;99.90;;;;;;5032004;28;20100;-43
2023/05/09 10:02:48;;;;;;;5.68;4.13;;;15.80;99.90;;;;;;5031904;28;20033;-42
2023/05/09 10:05:27;;;;;;;7.30;3.30;;;15.70;99.90;;;;;;5031797;28;20024;-42
2023/05/09 10:08:01;;;;;;;3.45;2.80;;;15.60;99.90;;;;;;5031220;28;20425;-44
2023/05/09 10:10:32;;;;;;;3.53;2.60;;;15.60;99.90;;;;;;5031686;28;20484;-42
2023/05/09 10:13:00;;;;;;;8.95;3.15;;;15.60;99.90;;;;;;5031722;28;20087;-42
2023/05/09 10:15:29;;;;;;;3.63;2.40;;;15.60;99.90;;;;;;5031629;28;20026;-42
2023/05/09 10:17:57;;;;;;;3.15;2.85;;;15.60;99.90;;;;;;5031101;28;20022;-42
2023/05/09 10:20:23;;;;;;;5.15;2.38;;;15.60;99.90;;;;;;5031722;28;20368;-42
2023/05/09 10:22:55;;;;;;;3.13;2.38;;;15.70;99.90;;;;;;5031611;28;20017;-42
2023/05/09 10:25:23;;;;;;;2.53;2.20;;;15.70;99.90;;;;;;5031631;28;20049;-44
2023/05/09 10:27:52;;;;;;;3.45;2.08;;;15.60;99.90;;;;;;5031041;28;20018;-42
2023/05/09 10:30:24;;;;;;;3.00;2.30;;;15.70;99.90;;;;;;5031378;28;20028;-43
2023/05/09 10:33:01;;;;;;;2.75;2.40;;;15.70;99.90;;;;;;5031473;28;20030;-45
2023/05/09 10:35:32;;;;;;;4.25;2.60;;;15.70;99.90;;;;;;5031438;28;20033;-43
2023/05/09 10:38:00;;;;;;;3.80;2.60;;;15.70;99.90;;;;;;5031059;28;20375;-42
2023/05/09 10:40:27;;;;;;;3.65;2.45;;;15.70;99.90;;;;;;5031672;28;20079;-43
2023/05/09 10:42:53;;;;;;;4.93;2.70;;;15.80;99.90;;;;;;5031238;28;20033;-42
2023/05/09 10:45:22;;;;;;;5.65;2.63;;;15.80;99.90;;;;;;5031176;28;20432;-44
2023/05/09 10:47:50;;;;;;;6.18;2.67;;;15.80;99.90;;;;;;5030703;28;20039;-42
2023/05/09 10:50:16;;;;;;;2.45;2.25;;;15.80;99.90;;;;;;5031077;28;20029;-42
2023/05/09 10:53:14;;;;;;;2.55;2.20;;;15.80;99.90;;;;;;5030790;28;20383;-42
2023/05/09 10:55:55;;;;;;;2.53;2.33;;;15.80;99.90;;;;;;5031581;28;20051;-44
2023/05/09 10:58:39;;;;;;;3.08;2.60;;;15.80;99.90;;;;;;5030974;28;20270;-42
2023/05/09 11:01:05;;;;;;;3.05;2.42;;;15.80;99.90;;;;;;5031073;28;20389;-43
2023/05/09 11:03:54;;;;;;;2.72;2.35;;;15.90;99.90;;;;;;5030933;28;20296;-42
2023/05/09 11:06:51;;;;;;;3.00;2.17;;;15.90;99.90;;;;;;5030379;28;20073;-42
2023/05/09 11:09:33;;;;;;;3.03;2.35;;;15.90;99.90;;;;;;5030921;28;20498;-43
2023/05/09 11:12:11;;;;;;;3.58;2.42;;;15.90;99.90;;;;;;5030888;28;20030;-42
2023/05/09 11:14:36;;;;;;;4.97;2.40;;;15.90;99.90;;;;;;5030874;28;20013;-42
2023/05/09 11:17:13;;;;;;;3.00;2.40;;;15.90;99.90;;;;;;5030404;28;20026;-42
2023/05/09 11:19:44;;;;;;;2.72;2.50;;;15.90;99.90;;;;;;5030924;28;20445;-42
2023/05/09 11:22:20;;;;;;;3.65;2.30;;;15.90;99.90;;;;;;5030692;28;20033;-45
2023/05/09 11:24:51;;;;;;;2.63;2.30;;;15.90;99.90;;;;;;5030870;28;20025;-43
2023/05/09 11:27:24;;;;;;;2.90;2.55;;;15.90;99.90;;;;;;5030171;28;20028;-42
2023/05/09 11:29:51;;;;;;;2.75;2.50;;;15.90;99.90;;;;;;5030790;28;20301;-42
2023/05/09 11:32:17;;;;;;;3.10;2.65;;;16.00;99.90;;;;;;5031096;28;20101;-43
2023/05/09 11:34:46;;;;;;;2.45;2.22;;;16.00;99.90;;;;;;5030613;28;20060;-42
2023/05/09 11:37:15;;;;;;;2.50;2.30;;;16.00;99.90;;;;;;5029981;28;20057;-42
2023/05/09 11:40:11;;;;;;;2.92;2.55;;;16.00;99.90;;;;;;5030704;28;20021;-42
2023/05/09 11:42:42;;;;;;;2.55;2.22;;;16.00;99.90;;;;;;5013893;28;20048;-43
2023/05/09 11:45:09;;;;;;;2.50;2.30;;;16.10;99.90;;;;;;5031056;28;20359;-42
2023/05/09 11:47:36;;;;;;;2.75;2.55;;;16.10;99.90;;;;;;5030047;28;20021;-43
2023/05/09 11:50:04;;;;;;;3.17;2.35;;;16.10;99.90;;;;;;5030747;28;20079;-42
2023/05/09 11:52:32;;;;;;;2.80;2.42;;;16.10;99.90;;;;;;5030469;28;20021;-42
2023/05/09 11:54:58;;;;;;;2.53;2.33;;;16.10;99.90;;;;;;5030531;28;20018;-42
2023/05/09 11:57:24;;;;;;;2.47;2.10;;;16.10;99.90;;;;;;5029917;28;20475;-42
2023/05/09 11:59:50;;;;;;;3.33;2.60;;;16.10;99.90;;;;;;5030420;28;20029;-42
2023/05/09 12:02:15;;;;;;;5.20;2.63;;;16.10;99.90;;;;;;5030522;28;20105;-42
2023/05/09 12:04:42;;;;;;;2.47;2.20;;;16.10;99.90;;;;;;5032369;28;20395;-43
2023/05/09 12:07:11;;;;;;;2.53;2.28;;;16.10;99.90;;;;;;5033557;28;20057;-41
2023/05/09 12:09:37;;;;;;;3.78;2.42;;;16.10;99.90;;;;;;5034087;28;20025;-43
2023/05/09 12:12:13;;;;;;;2.35;2.15;;;16.10;99.90;;;;;;5033931;28;20032;-42
2023/05/09 12:14:40;;;;;;;2.70;2.50;;;16.10;99.90;;;;;;5034245;28;20033;-42
2023/05/09 12:17:07;;;;;;;3.65;2.45;;;16.10;99.90;;;;;;5033457;28;20045;-42
2023/05/09 12:19:33;;;;;;;3.60;2.45;;;16.10;99.90;;;;;;5033978;28;20025;-41
2023/05/09 12:22:00;;;;;;;3.42;2.65;;;16.10;99.90;;;;;;5033873;28;20107;-42
2023/05/09 12:24:27;;;;;;;3.17;2.45;;;16.10;99.90;;;;;;5033804;28;20030;-43
2023/05/09 12:26:57;;;;;;;3.00;2.47;;;16.10;99.90;;;;;;5015390;28;20148;-42
2023/05/09 12:29:24;;;;;;;3.53;2.97;;;16.10;99.90;;;;;;5033618;28;20026;-44
2023/05/09 12:31:52;;;;;;;8.40;2.92;;;16.20;99.90;;;;;;5033665;28;20381;-48
2023/05/09 12:34:18;;;;;;;5.05;2.65;;;16.20;99.90;;;;;;5033598;28;20021;-44
2023/05/09 12:36:52;;;;;;;4.22;3.17;;;16.30;99.90;;;;;;5032902;28;20037;-46
2023/05/09 12:39:21;;;;;;;5.05;2.90;;;16.30;99.90;;;;;;5033500;28;20021;-46
2023/05/09 12:41:48;;;;;;;3.35;2.90;;;16.30;99.90;;;;;;5033765;28;20437;-44
2023/05/09 12:44:21;;;;;;;3.67;2.90;;;16.30;99.90;;;;;;5033485;28;20021;-44
2023/05/09 12:47:13;;;;;;;3.83;2.63;;;16.30;99.90;;;;;;5032841;28;20076;-45
2023/05/09 12:49:39;;;;;;;4.60;2.80;;;16.30;99.90;;;;;;5029430;28;20068;-45